sensor_id;sensor_type;location;lat;lon;timestamp;temperature;humidity
10083;DHT22;5080;48.528;8.078;2023-04-25T00:00:25;11.40;99.90
10083;DHT22;5080;48.528;8.078;2023-04-25T00:02:52;11.40;99.90
10083;DHT22;5080;48.528;8.078;2023-04-25T00:05:21;11.40;99.90
10083;DHT22;5080;48.528;8.078;2023-04-25T00:07:48;11.40;99.90
10083;DHT22;5080;48.528;8.078;2023-04-25T00:10:15;11.40;99.90
10083;DHT22;5080;48.528;8.078;2023-04-25T00:12:43;11.40;99.90
10083;DHT22;5080;48.528;8.078;2023-04-25T00:15:11;11.50;99.90
10083;DHT22;5080;48.528;8.078;2023-04-25T00:17:38;11.50;99.90
10083;DHT22;5080;48.528;8.078;2023-04-25T00:20:06;11.50;99.90
10083;DHT22;5080;48.528;8.078;2023-04-25T00:22:35;11.50;99.90
10083;DHT22;5080;48.528;8.078;2023-04-25T00:25:03;11.50;99.90
10083;DHT22;5080;48.528;8.078;2023-04-25T00:27:29;11.50;99.90
10083;DHT22;5080;48.528;8.078;2023-04-25T00:29:58;11.60;99.90
10083;DHT22;5080;48.528;8.078;2023-04-25T00:32:25;11.60;99.90
10083;DHT22;5080;48.528;8.078;2023-04-25T00:34:52;11.60;99.90
10083;DHT22;5080;48.528;8.078;2023-04-25T00:37:19;11.60;99.90
10083;DHT22;5080;48.528;8.078;2023-04-25T00:39:46;11.60;99.90
10083;DHT22;5080;48.528;8.078;2023-04-25T00:42:13;11.60;99.90
10083;DHT22;5080;48.528;8.078;2023-04-25T00:44:40;11.70;99.90
10083;DHT22;5080;48.528;8.078;2023-04-25T00:47:11;11.70;99.90
10083;DHT22;5080;48.528;8.078;2023-04-25T00:49:38;11.60;99.90
10083;DHT22;5080;48.528;8.078;2023-04-25T00:52:05;11.70;99.90
10083;DHT22;5080;48.528;8.078;2023-04-25T00:54:31;11.70;99.90
10083;DHT22;5080;48.528;8.078;2023-04-25T00:56:58;11.70;99.90
10083;DHT22;5080;48.528;8.078;2023-04-25T00:59:27;11.70;99.90
10083;DHT22;5080;48.528;8.078;2023-04-25T01:01:55;11.70;99.90
10083;DHT22;5080;48.528;8.078;2023-04-25T01:04:23;11.60;99.90
10083;DHT22;5080;48.528;8.078;2023-04-25T01:06:51;11.60;99.90
10083;DHT22;5080;48.528;8.078;2023-04-25T01:09:18;11.70;99.90
10083;DHT22;5080;48.528;8.078;2023-04-25T01:11:45;11.60;99.90
10083;DHT22;5080;48.528;8.078;2023-04-25T01:14:12;11.70;99.90
10083;DHT22;5080;48.528;8.078;2023-04-25T01:16:39;11.90;99.90
10083;DHT22;5080;48.528;8.078;2023-04-25T01:19:09;11.80;99.90
10083;DHT22;5080;48.528;8.078;2023-04-25T01:21:39;11.80;99.90
10083;DHT22;5080;48.528;8.078;2023-04-25T01:24:06;11.80;99.90
10083;DHT22;5080;48.528;8.078;2023-04-25T01:26:33;11.70;99.90
10083;DHT22;5080;48.528;8.078;2023-04-25T01:29:01;11.80;99.90
10083;DHT22;5080;48.528;8.078;2023-04-25T01:31:29;11.80;99.90
10083;DHT22;5080;48.528;8.078;2023-04-25T01:33:56;11.80;99.90
10083;DHT22;5080;48.528;8.078;2023-04-25T01:36:23;11.80;99.90
10083;DHT22;5080;48.528;8.078;2023-04-25T01:38:52;11.70;99.90
10083;DHT22;5080;48.528;8.078;2023-04-25T01:41:19;11.60;99.90
10083;DHT22;5080;48.528;8.078;2023-04-25T01:43:45;11.60;99.90
10083;DHT22;5080;48.528;8.078;2023-04-25T01:46:12;11.60;99.90
10083;DHT22;5080;48.528;8.078;2023-04-25T01:48:39;11.50;99.90
10083;DHT22;5080;48.528;8.078;2023-04-25T01:51:06;11.40;99.90
10083;DHT22;5080;48.528;8.078;2023-04-25T01:53:33;11.30;99.90
10083;DHT22;5080;48.528;8.078;2023-04-25T01:56:02;11.30;99.90
10083;DHT22;5080;48.528;8.078;2023-04-25T01:58:28;11.30;99.90
10083;DHT22;5080;48.528;8.078;2023-04-25T02:00:55;11.30;99.90
10083;DHT22;5080;48.528;8.078;2023-04-25T02:03:22;11.20;99.90
10083;DHT22;5080;48.528;8.078;2023-04-25T02:05:49;11.10;99.90
10083;DHT22;5080;48.528;8.078;2023-04-25T02:08:17;11.10;99.90
10083;DHT22;5080;48.528;8.078;2023-04-25T02:10:44;11.10;99.90
10083;DHT22;5080;48.528;8.078;2023-04-25T02:13:12;11.20;99.90
10083;DHT22;5080;48.528;8.078;2023-04-25T02:15:39;11.30;99.90
10083;DHT22;5080;48.528;8.078;2023-04-25T02:18:06;11.20;99.90
10083;DHT22;5080;48.528;8.078;2023-04-25T02:20:33;11.30;99.90
10083;DHT22;5080;48.528;8.078;2023-04-25T02:23:00;11.40;99.90
10083;DHT22;5080;48.528;8.078;2023-04-25T02:25:27;11.30;99.90
10083;DHT22;5080;48.528;8.078;2023-04-25T02:27:54;11.40;99.90
10083;DHT22;5080;48.528;8.078;2023-04-25T02:30:22;11.40;99.90
10083;DHT22;5080;48.528;8.078;2023-04-25T02:32:49;11.40;99.90
10083;DHT22;5080;48.528;8.078;2023-04-25T02:35:16;11.40;99.90
10083;DHT22;5080;48.528;8.078;2023-04-25T02:37:43;11.30;99.90
10083;DHT22;5080;48.528;8.078;2023-04-25T02:40:10;11.30;99.90
10083;DHT22;5080;48.528;8.078;2023-04-25T02:42:37;11.30;99.90
10083;DHT22;5080;48.528;8.078;2023-04-25T02:45:04;11.30;99.90
10083;DHT22;5080;48.528;8.078;2023-04-25T02:47:33;11.30;99.90
10083;DHT22;5080;48.528;8.078;2023-04-25T02:49:59;11.30;99.90
10083;DHT22;5080;48.528;8.078;2023-04-25T02:52:26;11.30;99.90
10083;DHT22;5080;48.528;8.078;2023-04-25T02:54:53;11.30;99.90
10083;DHT22;5080;48.528;8.078;2023-04-25T02:57:20;11.30;99.90
10083;DHT22;5080;48.528;8.078;2023-04-25T02:59:46;11.30;99.90
10083;DHT22;5080;48.528;8.078;2023-04-25T03:02:13;11.30;99.90
10083;DHT22;5080;48.528;8.078;2023-04-25T03:04:41;11.30;99.90
10083;DHT22;5080;48.528;8.078;2023-04-25T03:07:08;11.30;99.90
10083;DHT22;5080;48.528;8.078;2023-04-25T03:09:35;11.30;99.90
10083;DHT22;5080;48.528;8.078;2023-04-25T03:12:02;11.30;99.90
10083;DHT22;5080;48.528;8.078;2023-04-25T03:14:29;11.20;99.90
10083;DHT22;5080;48.528;8.078;2023-04-25T03:16:56;11.10;99.90
10083;DHT22;5080;48.528;8.078;2023-04-25T03:19:23;11.10;99.90
10083;DHT22;5080;48.528;8.078;2023-04-25T03:21:51;11.00;99.90
10083;DHT22;5080;48.528;8.078;2023-04-25T03:24:19;10.80;99.90
10083;DHT22;5080;48.528;8.078;2023-04-25T03:26:46;10.80;99.90
10083;DHT22;5080;48.528;8.078;2023-04-25T03:29:12;10.70;99.90
10083;DHT22;5080;48.528;8.078;2023-04-25T03:31:39;10.70;99.90
10083;DHT22;5080;48.528;8.078;2023-04-25T03:34:06;10.80;99.90
10083;DHT22;5080;48.528;8.078;2023-04-25T03:36:33;10.80;99.90
10083;DHT22;5080;48.528;8.078;2023-04-25T03:39:01;10.80;99.90
10083;DHT22;5080;48.528;8.078;2023-04-25T03:41:28;10.90;99.90
10083;DHT22;5080;48.528;8.078;2023-04-25T03:43:55;10.80;99.90
10083;DHT22;5080;48.528;8.078;2023-04-25T03:46:22;10.80;99.90
10083;DHT22;5080;48.528;8.078;2023-04-25T03:48:48;10.70;99.90
10083;DHT22;5080;48.528;8.078;2023-04-25T03:51:15;10.70;99.90
10083;DHT22;5080;48.528;8.078;2023-04-25T03:53:42;10.60;99.90
10083;DHT22;5080;48.528;8.078;2023-04-25T03:56:10;10.50;99.90
10083;DHT22;5080;48.528;8.078;2023-04-25T03:58:37;10.50;99.90
10083;DHT22;5080;48.528;8.078;2023-04-25T04:01:04;10.40;99.90
10083;DHT22;5080;48.528;8.078;2023-04-25T04:03:33;10.30;99.90
10083;DHT22;5080;48.528;8.078;2023-04-25T04:06:00;10.30;99.90
10083;DHT22;5080;48.528;8.078;2023-04-25T04:08:27;10.30;99.90
10083;DHT22;5080;48.528;8.078;2023-04-25T04:10:54;10.20;99.90
10083;DHT22;5080;48.528;8.078;2023-04-25T04:13:22;10.20;99.90
10083;DHT22;5080;48.528;8.078;2023-04-25T04:15:49;10.30;99.90
10083;DHT22;5080;48.528;8.078;2023-04-25T04:18:16;10.30;99.90
10083;DHT22;5080;48.528;8.078;2023-04-25T04:20:42;10.30;99.90
10083;DHT22;5080;48.528;8.078;2023-04-25T04:23:09;10.30;99.90
10083;DHT22;5080;48.528;8.078;2023-04-25T04:25:37;10.40;99.90
10083;DHT22;5080;48.528;8.078;2023-04-25T04:28:05;10.50;99.90
10083;DHT22;5080;48.528;8.078;2023-04-25T04:30:34;10.40;99.90
10083;DHT22;5080;48.528;8.078;2023-04-25T04:33:03;10.40;99.90
10083;DHT22;5080;48.528;8.078;2023-04-25T04:35:29;10.40;99.90
10083;DHT22;5080;48.528;8.078;2023-04-25T04:37:56;10.40;99.90
10083;DHT22;5080;48.528;8.078;2023-04-25T04:40:23;10.40;99.90
10083;DHT22;5080;48.528;8.078;2023-04-25T04:42:51;10.40;99.90
10083;DHT22;5080;48.528;8.078;2023-04-25T04:45:18;10.40;99.90
10083;DHT22;5080;48.528;8.078;2023-04-25T04:47:47;10.40;99.90
10083;DHT22;5080;48.528;8.078;2023-04-25T04:50:15;10.40;99.90
10083;DHT22;5080;48.528;8.078;2023-04-25T04:52:42;10.30;99.90
10083;DHT22;5080;48.528;8.078;2023-04-25T04:55:09;10.30;99.90
10083;DHT22;5080;48.528;8.078;2023-04-25T04:57:36;10.30;99.90
10083;DHT22;5080;48.528;8.078;2023-04-25T05:00:05;10.30;99.90
10083;DHT22;5080;48.528;8.078;2023-04-25T05:02:36;10.40;99.90
10083;DHT22;5080;48.528;8.078;2023-04-25T05:05:05;10.30;99.90
10083;DHT22;5080;48.528;8.078;2023-04-25T05:07:33;10.30;99.90
10083;DHT22;5080;48.528;8.078;2023-04-25T05:09:59;10.30;99.90
10083;DHT22;5080;48.528;8.078;2023-04-25T05:12:26;10.20;99.90
10083;DHT22;5080;48.528;8.078;2023-04-25T05:14:53;10.10;99.90
10083;DHT22;5080;48.528;8.078;2023-04-25T05:17:20;10.10;99.90
10083;DHT22;5080;48.528;8.078;2023-04-25T05:19:47;10.10;99.90
10083;DHT22;5080;48.528;8.078;2023-04-25T05:22:15;10.10;99.90
10083;DHT22;5080;48.528;8.078;2023-04-25T05:24:42;10.10;99.90
10083;DHT22;5080;48.528;8.078;2023-04-25T05:27:09;10.20;99.90
10083;DHT22;5080;48.528;8.078;2023-04-25T05:29:36;10.20;99.90
10083;DHT22;5080;48.528;8.078;2023-04-25T05:32:03;10.20;99.90
10083;DHT22;5080;48.528;8.078;2023-04-25T05:34:30;10.20;99.90
10083;DHT22;5080;48.528;8.078;2023-04-25T05:36:57;10.20;99.90
10083;DHT22;5080;48.528;8.078;2023-04-25T05:39:25;10.20;99.90
10083;DHT22;5080;48.528;8.078;2023-04-25T05:41:52;10.20;99.90
10083;DHT22;5080;48.528;8.078;2023-04-25T05:44:19;10.30;99.90
10083;DHT22;5080;48.528;8.078;2023-04-25T05:46:46;10.30;99.90
10083;DHT22;5080;48.528;8.078;2023-04-25T05:49:13;10.30;99.90
10083;DHT22;5080;48.528;8.078;2023-04-25T05:51:40;10.30;99.90
10083;DHT22;5080;48.528;8.078;2023-04-25T05:54:06;10.20;99.90
10083;DHT22;5080;48.528;8.078;2023-04-25T05:56:35;10.20;99.90
10083;DHT22;5080;48.528;8.078;2023-04-25T05:59:01;10.10;99.90
10083;DHT22;5080;48.528;8.078;2023-04-25T06:01:28;10.10;99.90
10083;DHT22;5080;48.528;8.078;2023-04-25T06:03:55;10.10;99.90
10083;DHT22;5080;48.528;8.078;2023-04-25T06:06:22;10.10;99.90
10083;DHT22;5080;48.528;8.078;2023-04-25T06:08:49;10.10;99.90
10083;DHT22;5080;48.528;8.078;2023-04-25T06:11:16;10.10;99.90
10083;DHT22;5080;48.528;8.078;2023-04-25T06:13:44;10.20;99.90
10083;DHT22;5080;48.528;8.078;2023-04-25T06:16:11;10.30;99.90
10083;DHT22;5080;48.528;8.078;2023-04-25T06:18:38;10.40;99.90
10083;DHT22;5080;48.528;8.078;2023-04-25T06:21:04;10.40;99.90
10083;DHT22;5080;48.528;8.078;2023-04-25T06:23:32;10.50;99.90
10083;DHT22;5080;48.528;8.078;2023-04-25T06:25:58;10.50;99.90
10083;DHT22;5080;48.528;8.078;2023-04-25T06:28:25;10.50;99.90
10083;DHT22;5080;48.528;8.078;2023-04-25T06:30:54;10.50;99.90
10083;DHT22;5080;48.528;8.078;2023-04-25T06:33:20;10.40;99.90
10083;DHT22;5080;48.528;8.078;2023-04-25T06:35:47;10.20;99.90
10083;DHT22;5080;48.528;8.078;2023-04-25T06:38:15;10.10;99.90
10083;DHT22;5080;48.528;8.078;2023-04-25T06:40:42;10.00;99.90
10083;DHT22;5080;48.528;8.078;2023-04-25T06:43:08;9.90;99.90
10083;DHT22;5080;48.528;8.078;2023-04-25T06:45:35;9.80;99.90
10083;DHT22;5080;48.528;8.078;2023-04-25T06:48:04;9.70;99.90
10083;DHT22;5080;48.528;8.078;2023-04-25T06:50:31;9.60;99.90
10083;DHT22;5080;48.528;8.078;2023-04-25T06:52:57;9.70;99.90
10083;DHT22;5080;48.528;8.078;2023-04-25T06:55:24;9.70;99.90
10083;DHT22;5080;48.528;8.078;2023-04-25T06:57:51;9.70;99.90
10083;DHT22;5080;48.528;8.078;2023-04-25T07:00:19;9.80;99.90
10083;DHT22;5080;48.528;8.078;2023-04-25T07:02:46;9.70;99.90
10083;DHT22;5080;48.528;8.078;2023-04-25T07:05:14;9.70;99.90
10083;DHT22;5080;48.528;8.078;2023-04-25T07:07:41;9.70;99.90
10083;DHT22;5080;48.528;8.078;2023-04-25T07:10:08;9.60;99.90
10083;DHT22;5080;48.528;8.078;2023-04-25T07:12:35;9.50;99.90
10083;DHT22;5080;48.528;8.078;2023-04-25T07:15:02;9.50;99.90
10083;DHT22;5080;48.528;8.078;2023-04-25T07:17:32;9.30;99.90
10083;DHT22;5080;48.528;8.078;2023-04-25T07:19:59;9.40;99.90
10083;DHT22;5080;48.528;8.078;2023-04-25T07:22:27;9.30;99.90
10083;DHT22;5080;48.528;8.078;2023-04-25T07:24:54;9.20;99.90
10083;DHT22;5080;48.528;8.078;2023-04-25T07:27:21;9.10;99.90
10083;DHT22;5080;48.528;8.078;2023-04-25T07:29:48;9.10;99.90
10083;DHT22;5080;48.528;8.078;2023-04-25T07:32:15;9.10;99.90
10083;DHT22;5080;48.528;8.078;2023-04-25T07:34:42;9.00;99.90
10083;DHT22;5080;48.528;8.078;2023-04-25T07:37:08;8.90;99.90
10083;DHT22;5080;48.528;8.078;2023-04-25T07:39:37;9.00;99.90
10083;DHT22;5080;48.528;8.078;2023-04-25T07:42:04;8.90;99.90
10083;DHT22;5080;48.528;8.078;2023-04-25T07:44:33;8.90;99.90
10083;DHT22;5080;48.528;8.078;2023-04-25T07:47:04;8.80;99.90
10083;DHT22;5080;48.528;8.078;2023-04-25T07:49:32;8.70;99.90
10083;DHT22;5080;48.528;8.078;2023-04-25T07:51:59;8.70;99.90
10083;DHT22;5080;48.528;8.078;2023-04-25T07:54:26;8.70;99.90
10083;DHT22;5080;48.528;8.078;2023-04-25T07:56:54;8.70;99.90
10083;DHT22;5080;48.528;8.078;2023-04-25T07:59:21;8.70;99.90
10083;DHT22;5080;48.528;8.078;2023-04-25T08:01:48;8.60;99.90
10083;DHT22;5080;48.528;8.078;2023-04-25T08:04:15;8.60;99.90
10083;DHT22;5080;48.528;8.078;2023-04-25T08:06:42;8.50;99.90
10083;DHT22;5080;48.528;8.078;2023-04-25T08:09:09;8.50;99.90
10083;DHT22;5080;48.528;8.078;2023-04-25T08:11:36;8.40;99.90
10083;DHT22;5080;48.528;8.078;2023-04-25T08:14:05;8.40;99.90
10083;DHT22;5080;48.528;8.078;2023-04-25T08:16:32;8.30;99.90
10083;DHT22;5080;48.528;8.078;2023-04-25T08:18:59;8.30;99.90
10083;DHT22;5080;48.528;8.078;2023-04-25T08:21:26;8.30;99.90
10083;DHT22;5080;48.528;8.078;2023-04-25T08:23:53;8.10;99.90
10083;DHT22;5080;48.528;8.078;2023-04-25T08:26:20;8.10;99.90
10083;DHT22;5080;48.528;8.078;2023-04-25T08:28:47;8.10;99.90
10083;DHT22;5080;48.528;8.078;2023-04-25T08:31:15;8.10;99.90
10083;DHT22;5080;48.528;8.078;2023-04-25T08:33:42;8.10;99.90
10083;DHT22;5080;48.528;8.078;2023-04-25T08:36:09;8.20;99.90
10083;DHT22;5080;48.528;8.078;2023-04-25T08:38:35;8.40;99.90
10083;DHT22;5080;48.528;8.078;2023-04-25T08:41:03;8.40;99.90
10083;DHT22;5080;48.528;8.078;2023-04-25T08:43:32;8.40;99.90
10083;DHT22;5080;48.528;8.078;2023-04-25T08:46:00;8.40;99.90
10083;DHT22;5080;48.528;8.078;2023-04-25T08:48:28;8.60;99.90
10083;DHT22;5080;48.528;8.078;2023-04-25T08:50:59;8.70;99.90
10083;DHT22;5080;48.528;8.078;2023-04-25T08:53:29;8.60;99.90
10083;DHT22;5080;48.528;8.078;2023-04-25T08:55:58;8.50;99.90
10083;DHT22;5080;48.528;8.078;2023-04-25T08:58:27;8.40;99.90
10083;DHT22;5080;48.528;8.078;2023-04-25T09:00:54;8.60;99.90
10083;DHT22;5080;48.528;8.078;2023-04-25T09:03:21;8.70;99.90
10083;DHT22;5080;48.528;8.078;2023-04-25T09:05:49;8.70;99.90
10083;DHT22;5080;48.528;8.078;2023-04-25T09:08:18;8.80;99.90
10083;DHT22;5080;48.528;8.078;2023-04-25T09:10:45;8.90;99.90
10083;DHT22;5080;48.528;8.078;2023-04-25T09:13:13;8.90;99.90
10083;DHT22;5080;48.528;8.078;2023-04-25T09:15:47;9.00;99.90
10083;DHT22;5080;48.528;8.078;2023-04-25T09:18:22;9.00;99.90
10083;DHT22;5080;48.528;8.078;2023-04-25T09:20:52;9.00;99.90
10083;DHT22;5080;48.528;8.078;2023-04-25T09:23:20;8.90;99.90
10083;DHT22;5080;48.528;8.078;2023-04-25T09:25:48;8.80;99.90
10083;DHT22;5080;48.528;8.078;2023-04-25T09:28:15;8.80;99.90
10083;DHT22;5080;48.528;8.078;2023-04-25T09:30:42;8.80;99.90
10083;DHT22;5080;48.528;8.078;2023-04-25T09:33:10;8.80;99.90
10083;DHT22;5080;48.528;8.078;2023-04-25T09:35:37;8.80;99.90
10083;DHT22;5080;48.528;8.078;2023-04-25T09:38:10;8.90;99.90
10083;DHT22;5080;48.528;8.078;2023-04-25T09:40:41;9.00;99.90
10083;DHT22;5080;48.528;8.078;2023-04-25T09:43:19;9.00;99.90
10083;DHT22;5080;48.528;8.078;2023-04-25T09:45:46;9.00;99.90
10083;DHT22;5080;48.528;8.078;2023-04-25T09:48:17;8.90;99.90
10083;DHT22;5080;48.528;8.078;2023-04-25T09:50:45;8.70;99.90
10083;DHT22;5080;48.528;8.078;2023-04-25T09:53:13;8.60;99.90
10083;DHT22;5080;48.528;8.078;2023-04-25T09:55:41;8.60;99.90
10083;DHT22;5080;48.528;8.078;2023-04-25T09:58:10;8.60;99.90
10083;DHT22;5080;48.528;8.078;2023-04-25T10:00:38;8.50;99.90
10083;DHT22;5080;48.528;8.078;2023-04-25T10:03:05;8.50;99.90
10083;DHT22;5080;48.528;8.078;2023-04-25T10:05:34;8.40;99.90
10083;DHT22;5080;48.528;8.078;2023-04-25T10:08:03;8.40;99.90
10083;DHT22;5080;48.528;8.078;2023-04-25T10:10:32;8.30;99.90
10083;DHT22;5080;48.528;8.078;2023-04-25T10:13:03;8.30;99.90
10083;DHT22;5080;48.528;8.078;2023-04-25T10:15:32;8.20;99.90
10083;DHT22;5080;48.528;8.078;2023-04-25T10:18:01;8.20;99.90
10083;DHT22;5080;48.528;8.078;2023-04-25T10:20:28;8.20;99.90
10083;DHT22;5080;48.528;8.078;2023-04-25T10:22:58;8.20;99.90
10083;DHT22;5080;48.528;8.078;2023-04-25T10:25:29;8.20;99.90
10083;DHT22;5080;48.528;8.078;2023-04-25T10:27:59;8.20;99.90
10083;DHT22;5080;48.528;8.078;2023-04-25T10:30:27;8.30;99.90
10083;DHT22;5080;48.528;8.078;2023-04-25T10:32:55;8.40;99.90
10083;DHT22;5080;48.528;8.078;2023-04-25T10:35:25;8.70;99.90
10083;DHT22;5080;48.528;8.078;2023-04-25T10:38:00;8.90;99.90
10083;DHT22;5080;48.528;8.078;2023-04-25T10:40:29;9.10;99.90
10083;DHT22;5080;48.528;8.078;2023-04-25T10:43:34;9.20;99.90
10083;DHT22;5080;48.528;8.078;2023-04-25T10:46:02;9.40;99.90
10083;DHT22;5080;48.528;8.078;2023-04-25T10:48:30;9.50;99.90
10083;DHT22;5080;48.528;8.078;2023-04-25T10:51:10;9.60;99.90
10083;DHT22;5080;48.528;8.078;2023-04-25T10:53:37;9.70;99.90
10083;DHT22;5080;48.528;8.078;2023-04-25T10:56:10;9.90;99.90
10083;DHT22;5080;48.528;8.078;2023-04-25T10:58:43;9.90;99.90
10083;DHT22;5080;48.528;8.078;2023-04-25T11:01:10;9.80;99.90
10083;DHT22;5080;48.528;8.078;2023-04-25T11:03:40;9.80;99.90
10083;DHT22;5080;48.528;8.078;2023-04-25T11:06:14;9.90;99.90
10083;DHT22;5080;48.528;8.078;2023-04-25T11:08:49;10.00;99.90
10083;DHT22;5080;48.528;8.078;2023-04-25T11:11:16;10.10;99.90
10083;DHT22;5080;48.528;8.078;2023-04-25T11:13:47;10.20;99.90
10083;DHT22;5080;48.528;8.078;2023-04-25T11:16:14;10.30;99.90
10083;DHT22;5080;48.528;8.078;2023-04-25T11:18:41;10.40;99.90
10083;DHT22;5080;48.528;8.078;2023-04-25T11:21:08;10.30;99.90
10083;DHT22;5080;48.528;8.078;2023-04-25T11:23:35;10.30;99.90
10083;DHT22;5080;48.528;8.078;2023-04-25T11:26:03;10.20;99.90
10083;DHT22;5080;48.528;8.078;2023-04-25T11:28:30;10.10;99.90
10083;DHT22;5080;48.528;8.078;2023-04-25T11:30:58;10.00;99.90
10083;DHT22;5080;48.528;8.078;2023-04-25T11:33:25;9.90;99.90
10083;DHT22;5080;48.528;8.078;2023-04-25T11:35:54;10.00;99.90
10083;DHT22;5080;48.528;8.078;2023-04-25T11:38:22;10.00;99.90
10083;DHT22;5080;48.528;8.078;2023-04-25T11:40:52;10.10;99.90
10083;DHT22;5080;48.528;8.078;2023-04-25T11:43:20;10.10;99.90
10083;DHT22;5080;48.528;8.078;2023-04-25T11:45:48;10.20;99.90
10083;DHT22;5080;48.528;8.078;2023-04-25T11:48:17;10.40;99.90
10083;DHT22;5080;48.528;8.078;2023-04-25T11:50:44;10.50;99.90
10083;DHT22;5080;48.528;8.078;2023-04-25T11:53:11;10.60;99.90
10083;DHT22;5080;48.528;8.078;2023-04-25T11:55:38;10.60;99.90
10083;DHT22;5080;48.528;8.078;2023-04-25T11:58:05;10.80;99.90
10083;DHT22;5080;48.528;8.078;2023-04-25T12:00:34;10.80;99.90
10083;DHT22;5080;48.528;8.078;2023-04-25T12:03:01;11.10;99.90
10083;DHT22;5080;48.528;8.078;2023-04-25T12:05:30;11.30;99.90
10083;DHT22;5080;48.528;8.078;2023-04-25T12:08:09;11.50;99.90
10083;DHT22;5080;48.528;8.078;2023-04-25T12:10:38;11.70;99.90
10083;DHT22;5080;48.528;8.078;2023-04-25T12:13:21;11.80;99.90
10083;DHT22;5080;48.528;8.078;2023-04-25T12:15:48;12.10;99.90
10083;DHT22;5080;48.528;8.078;2023-04-25T12:18:18;12.20;99.90
10083;DHT22;5080;48.528;8.078;2023-04-25T12:20:46;11.90;99.90
10083;DHT22;5080;48.528;8.078;2023-04-25T12:23:13;11.90;99.90
10083;DHT22;5080;48.528;8.078;2023-04-25T12:25:41;11.80;99.90
10083;DHT22;5080;48.528;8.078;2023-04-25T12:28:13;11.90;99.90
10083;DHT22;5080;48.528;8.078;2023-04-25T12:30:56;12.20;99.90
10083;DHT22;5080;48.528;8.078;2023-04-25T12:33:23;12.70;99.90
10083;DHT22;5080;48.528;8.078;2023-04-25T12:35:51;13.10;99.90
10083;DHT22;5080;48.528;8.078;2023-04-25T12:38:23;13.40;99.90
10083;DHT22;5080;48.528;8.078;2023-04-25T12:40:50;13.80;99.90
10083;DHT22;5080;48.528;8.078;2023-04-25T12:43:17;14.20;99.90
10083;DHT22;5080;48.528;8.078;2023-04-25T12:45:44;14.50;99.90
10083;DHT22;5080;48.528;8.078;2023-04-25T12:48:11;14.50;99.90
10083;DHT22;5080;48.528;8.078;2023-04-25T12:50:38;14.50;99.90
10083;DHT22;5080;48.528;8.078;2023-04-25T12:53:06;14.30;99.90
10083;DHT22;5080;48.528;8.078;2023-04-25T12:55:33;14.10;99.90
10083;DHT22;5080;48.528;8.078;2023-04-25T12:57:59;14.10;99.90
10083;DHT22;5080;48.528;8.078;2023-04-25T13:00:26;13.70;99.90
10083;DHT22;5080;48.528;8.078;2023-04-25T13:02:53;13.40;99.90
10083;DHT22;5080;48.528;8.078;2023-04-25T13:05:20;12.90;99.90
10083;DHT22;5080;48.528;8.078;2023-04-25T13:07:47;12.70;99.90
10083;DHT22;5080;48.528;8.078;2023-04-25T13:10:15;12.60;99.90
10083;DHT22;5080;48.528;8.078;2023-04-25T13:12:43;12.00;99.90
10083;DHT22;5080;48.528;8.078;2023-04-25T13:15:11;11.10;99.90
10083;DHT22;5080;48.528;8.078;2023-04-25T13:17:38;10.00;99.90
10083;DHT22;5080;48.528;8.078;2023-04-25T13:20:06;9.40;99.90
10083;DHT22;5080;48.528;8.078;2023-04-25T13:22:35;9.20;99.90
10083;DHT22;5080;48.528;8.078;2023-04-25T13:25:03;9.10;99.90
10083;DHT22;5080;48.528;8.078;2023-04-25T13:27:32;9.10;99.90
10083;DHT22;5080;48.528;8.078;2023-04-25T13:29:59;9.10;99.90
10083;DHT22;5080;48.528;8.078;2023-04-25T13:32:26;9.20;99.90
10083;DHT22;5080;48.528;8.078;2023-04-25T13:34:53;9.40;99.90
10083;DHT22;5080;48.528;8.078;2023-04-25T13:37:21;9.60;99.90
10083;DHT22;5080;48.528;8.078;2023-04-25T13:39:49;9.80;99.90
10083;DHT22;5080;48.528;8.078;2023-04-25T13:42:16;10.00;99.90
10083;DHT22;5080;48.528;8.078;2023-04-25T13:44:44;10.10;99.90
10083;DHT22;5080;48.528;8.078;2023-04-25T13:47:11;10.10;99.90
10083;DHT22;5080;48.528;8.078;2023-04-25T13:49:38;10.20;99.90
10083;DHT22;5080;48.528;8.078;2023-04-25T13:52:05;10.60;99.90
10083;DHT22;5080;48.528;8.078;2023-04-25T13:54:32;11.00;99.90
10083;DHT22;5080;48.528;8.078;2023-04-25T13:56:58;11.50;99.90
10083;DHT22;5080;48.528;8.078;2023-04-25T13:59:25;11.80;99.90
10083;DHT22;5080;48.528;8.078;2023-04-25T14:01:54;12.00;99.90
10083;DHT22;5080;48.528;8.078;2023-04-25T14:04:20;12.20;99.90
10083;DHT22;5080;48.528;8.078;2023-04-25T14:06:47;12.20;99.90
10083;DHT22;5080;48.528;8.078;2023-04-25T14:09:14;12.10;99.90
10083;DHT22;5080;48.528;8.078;2023-04-25T14:11:41;11.90;99.90
10083;DHT22;5080;48.528;8.078;2023-04-25T14:14:08;11.90;99.90
10083;DHT22;5080;48.528;8.078;2023-04-25T14:16:35;11.90;99.90
10083;DHT22;5080;48.528;8.078;2023-04-25T14:19:03;11.90;99.90
10083;DHT22;5080;48.528;8.078;2023-04-25T14:21:30;12.00;99.90
10083;DHT22;5080;48.528;8.078;2023-04-25T14:23:58;12.10;99.90
10083;DHT22;5080;48.528;8.078;2023-04-25T14:26:25;12.40;99.90
10083;DHT22;5080;48.528;8.078;2023-04-25T14:28:52;12.60;99.90
10083;DHT22;5080;48.528;8.078;2023-04-25T14:31:19;12.80;99.90
10083;DHT22;5080;48.528;8.078;2023-04-25T14:33:46;12.90;99.90
10083;DHT22;5080;48.528;8.078;2023-04-25T14:36:14;12.90;99.90
10083;DHT22;5080;48.528;8.078;2023-04-25T14:38:41;12.90;99.90
10083;DHT22;5080;48.528;8.078;2023-04-25T14:41:08;13.00;99.90
10083;DHT22;5080;48.528;8.078;2023-04-25T14:43:36;13.10;99.90
10083;DHT22;5080;48.528;8.078;2023-04-25T14:46:03;13.10;99.90
10083;DHT22;5080;48.528;8.078;2023-04-25T14:48:30;13.20;99.90
10083;DHT22;5080;48.528;8.078;2023-04-25T14:50:56;13.50;99.90
10083;DHT22;5080;48.528;8.078;2023-04-25T14:53:24;13.70;99.90
10083;DHT22;5080;48.528;8.078;2023-04-25T14:55:52;13.70;99.90
10083;DHT22;5080;48.528;8.078;2023-04-25T14:58:19;13.80;99.90
10083;DHT22;5080;48.528;8.078;2023-04-25T15:00:47;13.80;99.90
10083;DHT22;5080;48.528;8.078;2023-04-25T15:03:14;13.70;99.90
10083;DHT22;5080;48.528;8.078;2023-04-25T15:05:42;13.80;99.90
10083;DHT22;5080;48.528;8.078;2023-04-25T15:08:09;13.90;99.90
10083;DHT22;5080;48.528;8.078;2023-04-25T15:10:37;14.10;99.90
10083;DHT22;5080;48.528;8.078;2023-04-25T15:13:04;13.90;99.90
10083;DHT22;5080;48.528;8.078;2023-04-25T15:15:31;13.80;99.90
10083;DHT22;5080;48.528;8.078;2023-04-25T15:17:58;13.70;99.90
10083;DHT22;5080;48.528;8.078;2023-04-25T15:20:25;13.70;99.90
10083;DHT22;5080;48.528;8.078;2023-04-25T15:22:53;13.80;99.90
10083;DHT22;5080;48.528;8.078;2023-04-25T15:25:20;13.80;99.90
10083;DHT22;5080;48.528;8.078;2023-04-25T15:27:48;13.80;99.90
10083;DHT22;5080;48.528;8.078;2023-04-25T15:30:18;13.60;99.90
10083;DHT22;5080;48.528;8.078;2023-04-25T15:32:45;13.70;99.90
10083;DHT22;5080;48.528;8.078;2023-04-25T15:35:13;13.70;99.90
10083;DHT22;5080;48.528;8.078;2023-04-25T15:37:40;13.80;99.90
10083;DHT22;5080;48.528;8.078;2023-04-25T15:40:09;13.80;99.90
10083;DHT22;5080;48.528;8.078;2023-04-25T15:42:38;13.70;99.90
10083;DHT22;5080;48.528;8.078;2023-04-25T15:45:08;13.60;99.90
10083;DHT22;5080;48.528;8.078;2023-04-25T15:47:37;13.50;99.90
10083;DHT22;5080;48.528;8.078;2023-04-25T15:50:07;13.50;99.90
10083;DHT22;5080;48.528;8.078;2023-04-25T15:52:35;13.40;99.90